Time;durP1;ratioP1;P1;durP2;ratioP2;P2;SDS_P1;SDS_P2;PMS_P1;PMS_P2;Temp;Humidity;BMP_temperature;BMP_pressure;BME280_temperature;BME280_humidity;BME280_pressure;Samples;Min_cycle;Max_cycle;Signal;HPM_P1;HPM_P2
2022/03/01 00:01:31;;;;;;;12.32;7.55;;;;;;;4.39;55.96;99661.56;5039501;28;20021;-68
2022/03/01 00:03:56;;;;;;;15.00;7.68;;;;;;;4.73;56.13;99732.78;5024105;28;20049;-68
2022/03/01 00:06:21;;;;;;;14.73;7.85;;;;;;;4.67;55.66;99709.88;5025470;28;20140;-68
2022/03/01 00:08:47;;;;;;;13.52;8.25;;;;;;;4.73;56.30;99716.50;5022326;28;20440;-68
2022/03/01 00:11:13;;;;;;;12.38;7.82;;;;;;;4.81;55.97;99732.38;5042020;28;20039;-67
2022/03/01 00:13:39;;;;;;;12.43;7.93;;;;;;;4.75;56.86;99733.53;5038223;28;20448;-67
2022/03/01 00:16:05;;;;;;;16.10;7.88;;;;;;;4.13;56.53;99635.44;5030579;28;20083;-67
2022/03/01 00:18:31;;;;;;;13.18;7.65;;;;;;;4.84;56.40;99736.50;5036917;28;20033;-67
2022/03/01 00:20:56;;;;;;;14.02;8.02;;;;;;;4.73;56.79;99742.25;5040400;28;20172;-68
2022/03/01 00:23:22;;;;;;;13.07;8.13;;;;;;;4.74;57.88;99755.03;5055550;28;20033;-67
2022/03/01 00:25:47;;;;;;;15.85;8.43;;;;;;;4.70;57.15;99747.56;5055450;28;20022;-67
2022/03/01 00:28:13;;;;;;;16.27;8.45;;;;;;;4.71;57.32;99755.22;5044896;28;20471;-67
2022/03/01 00:30:38;;;;;;;14.15;8.00;;;;;;;4.74;57.05;99755.03;5038742;28;20071;-68
2022/03/01 00:33:04;;;;;;;16.45;8.35;;;;;;;4.75;57.79;99769.59;5035774;28;20044;-67
2022/03/01 00:35:29;;;;;;;14.13;8.27;;;;;;;4.30;56.99;99726.41;5042549;28;20353;-67
2022/03/01 00:37:57;;;;;;;11.48;7.20;;;;;;;4.66;56.53;99784.72;5042260;28;20021;-67
2022/03/01 00:40:22;;;;;;;11.98;7.70;;;;;;;4.53;55.32;99787.06;5041081;28;20546;-67
2022/03/01 00:42:48;;;;;;;14.43;7.05;;;;;;;4.54;55.47;99793.88;5035194;28;20036;-68
2022/03/01 00:45:13;;;;;;;13.65;6.93;;;;;;;4.45;54.05;99815.75;5036120;28;20029;-68
2022/03/01 00:47:38;;;;;;;11.73;5.88;;;;;;;4.39;53.75;99806.59;5044314;28;20467;-67
2022/03/01 00:50:04;;;;;;;13.65;6.22;;;;;;;4.30;53.30;99799.34;5032511;28;20025;-67
2022/03/01 00:52:30;;;;;;;11.80;6.47;;;;;;;4.35;54.01;99802.53;5027997;28;20040;-67
2022/03/01 00:54:55;;;;;;;14.60;6.30;;;;;;;4.02;53.18;99759.50;5048456;28;20029;-67
2022/03/01 00:57:21;;;;;;;13.02;6.22;;;;;;;4.29;53.09;99802.84;5024316;28;20532;-67
2022/03/01 00:59:46;;;;;;;11.15;6.05;;;;;;;4.32;53.52;99799.28;5032989;28;20024;-67
2022/03/01 01:02:12;;;;;;;11.82;6.32;;;;;;;4.27;53.98;99804.66;5032128;28;20090;-68
2022/03/01 01:04:37;;;;;;;12.00;6.47;;;;;;;4.24;53.48;99808.19;5021531;28;20963;-66
2022/03/01 01:07:03;;;;;;;14.20;7.13;;;;;;;3.92;53.67;99745.41;5040532;28;20492;-68
2022/03/01 01:09:28;;;;;;;11.88;6.28;;;;;;;4.24;53.86;99818.50;5035952;28;20128;-68
2022/03/01 01:11:54;;;;;;;11.02;5.75;;;;;;;4.22;54.22;99820.31;5037341;28;20064;-68
2022/03/01 01:14:19;;;;;;;15.77;6.72;;;;;;;4.32;54.34;99832.75;5042892;28;20430;-67
2022/03/01 01:16:44;;;;;;;12.50;6.45;;;;;;;4.26;54.33;99821.00;5046571;28;20063;-68
2022/03/01 01:19:10;;;;;;;11.32;6.32;;;;;;;4.22;54.51;99819.50;5041998;28;20397;-68
2022/03/01 01:24:19;;;;;;;11.85;6.50;;;;;;;4.26;53.48;99828.72;5043550;28;20628;-68
2022/03/01 01:26:44;;;;;;;14.18;6.70;;;;;;;4.24;53.06;99833.13;5046489;28;20029;-68
2022/03/01 01:29:10;;;;;;;12.70;5.88;;;;;;;4.12;52.40;99836.28;5049424;28;20079;-68
2022/03/01 01:31:35;;;;;;;11.30;5.88;;;;;;;4.03;52.34;99845.28;5055240;28;20039;-68
2022/03/01 01:34:01;;;;;;;12.02;5.80;;;;;;;4.00;51.59;99850.59;5026415;28;20033;-67
2022/03/01 01:36:26;;;;;;;10.43;5.95;;;;;;;3.92;50.30;99827.75;5041819;28;20587;-68
2022/03/01 01:38:53;;;;;;;12.77;6.15;;;;;;;3.95;50.91;99866.22;5047715;28;20871;-68
2022/03/01 01:41:18;;;;;;;9.52;5.57;;;;;;;3.57;50.64;99801.13;5048043;28;20020;-68
2022/03/01 01:43:44;;;;;;;11.07;5.40;;;;;;;3.48;49.64;99792.09;5048761;28;20493;-68
2022/03/01 01:46:09;;;;;;;8.70;4.40;;;;;;;3.78;48.66;99853.34;5049576;28;20021;-68
2022/03/01 01:48:34;;;;;;;11.15;4.45;;;;;;;3.85;48.57;99865.84;5029903;28;20112;-68
2022/03/01 01:51:00;;;;;;;10.13;5.10;;;;;;;3.61;48.54;99831.78;5048506;28;20025;-67
2022/03/01 01:53:25;;;;;;;9.68;4.80;;;;;;;3.71;49.02;99862.25;5047068;28;21729;-68
2022/03/01 01:55:51;;;;;;;9.30;4.50;;;;;;;3.79;48.63;99865.28;5027658;28;20021;-68
2022/03/01 01:58:17;;;;;;;9.35;4.65;;;;;;;3.81;48.78;99884.88;5040842;28;20473;-68
2022/03/01 02:00:44;;;;;;;8.85;4.75;;;;;;;3.83;48.59;99874.50;5030332;28;20050;-69
2022/03/01 02:03:09;;;;;;;10.38;4.55;;;;;;;3.76;48.47;99892.00;5028265;28;20449;-67
2022/03/01 02:05:34;;;;;;;11.70;4.60;;;;;;;3.79;48.42;99893.56;5040736;28;20017;-68
2022/03/01 02:08:00;;;;;;;9.13;4.82;;;;;;;3.81;48.16;99886.63;5048461;28;20040;-68
2022/03/01 02:10:26;;;;;;;8.85;4.15;;;;;;;3.82;48.48;99890.88;5046863;28;20036;-68
2022/03/01 02:12:51;;;;;;;12.02;4.85;;;;;;;3.74;48.03;99898.94;5046205;28;20025;-67
2022/03/01 02:15:17;;;;;;;10.40;4.88;;;;;;;3.74;48.31;99891.22;5043699;28;20833;-68
2022/03/01 02:17:43;;;;;;;10.77;4.82;;;;;;;3.79;47.80;99899.53;5029825;28;20021;-68
2022/03/01 02:20:20;;;;;;;8.75;4.30;;;;;;;3.83;47.33;99913.09;5043967;28;20479;-67
2022/03/01 02:22:46;;;;;;;8.35;4.07;;;;;;;3.44;47.45;99849.72;5042335;28;20017;-68
2022/03/01 02:25:12;;;;;;;9.32;4.18;;;;;;;3.74;47.60;99913.53;5029698;28;20404;-67
2022/03/01 02:27:37;;;;;;;10.63;4.60;;;;;;;3.71;48.12;99914.50;5043549;28;20134;-68
2022/03/01 02:30:04;;;;;;;9.52;5.00;;;;;;;3.73;47.76;99906.72;5043692;28;20029;-68
2022/03/01 02:32:30;;;;;;;10.52;4.88;;;;;;;3.29;48.09;99856.38;5045417;28;20027;-68
2022/03/01 02:34:55;;;;;;;11.63;4.82;;;;;;;3.55;48.10;99900.66;5041982;28;20024;-68
2022/03/01 02:37:21;;;;;;;10.32;4.80;;;;;;;3.67;47.78;99920.72;5042980;28;20102;-67
2022/03/01 02:39:46;;;;;;;12.32;5.55;;;;;;;3.66;48.10;99931.88;5042887;28;20029;-67
2022/03/01 02:42:12;;;;;;;8.45;4.43;;;;;;;3.66;47.96;99926.75;5048224;28;20027;-68
2022/03/01 02:44:37;;;;;;;8.85;4.40;;;;;;;3.58;47.81;99926.25;5042297;28;20133;-69
2022/03/01 02:47:03;;;;;;;9.48;4.38;;;;;;;3.59;47.86;99935.63;5042829;28;20029;-68
2022/03/01 02:49:28;;;;;;;9.10;4.32;;;;;;;3.56;47.38;99934.03;5043808;28;20036;-68
2022/03/01 02:51:54;;;;;;;10.23;4.20;;;;;;;3.56;47.14;99931.47;5043520;28;20041;-68
2022/03/01 02:54:19;;;;;;;10.95;4.22;;;;;;;3.57;47.08;99945.16;5026549;28;20031;-68
2022/03/01 02:56:44;;;;;;;8.45;4.40;;;;;;;3.55;46.71;99936.69;5046494;28;20440;-68
2022/03/01 02:59:10;;;;;;;10.15;4.18;;;;;;;3.24;46.30;99895.13;5023418;28;20021;-68
2022/03/01 03:01:35;;;;;;;9.30;4.10;;;;;;;3.52;46.03;99936.81;5045190;28;20013;-68
2022/03/01 03:04:01;;;;;;;7.25;3.83;;;;;;;3.51;46.17;99945.44;5043335;28;20035;-68
2022/03/01 03:06:27;;;;;;;7.55;3.88;;;;;;;3.55;45.26;99944.38;5041922;28;20131;-68
2022/03/01 03:08:52;;;;;;;9.95;3.88;;;;;;;3.57;45.63;99945.16;5027400;28;20029;-68
2022/03/01 03:11:18;;;;;;;7.95;3.97;;;;;;;3.48;45.02;99946.38;5026481;28;20433;-68
2022/03/01 03:13:43;;;;;;;6.88;3.50;;;;;;;3.56;45.12;99944.34;5043680;28;20029;-68
2022/03/01 03:16:10;;;;;;;7.45;3.63;;;;;;;3.32;45.11;99917.09;5042183;28;20033;-69
2022/03/01 03:18:36;;;;;;;9.77;4.55;;;;;;;3.53;45.11;99954.75;5025298;28;20396;-68
2022/03/01 03:21:01;;;;;;;10.52;4.30;;;;;;;3.51;44.95;99961.69;5042681;28;20053;-68
2022/03/01 03:23:27;;;;;;;8.23;3.78;;;;;;;3.46;45.29;99954.16;5042124;28;20047;-68
2022/03/01 03:25:52;;;;;;;7.05;3.80;;;;;;;3.49;45.68;99962.66;5043400;28;20122;-68
2022/03/01 03:28:18;;;;;;;8.90;4.03;;;;;;;3.53;45.11;99967.59;5054334;28;20034;-68
2022/03/01 03:30:43;;;;;;;6.75;3.50;;;;;;;3.53;45.06;99983.03;5042042;28;20033;-68
2022/03/01 03:33:09;;;;;;;7.22;3.65;;;;;;;3.20;45.29;99926.19;5036360;28;20044;-69
2022/03/01 03:35:34;;;;;;;8.43;3.88;;;;;;;3.57;45.04;99981.16;5024799;28;20037;-69
2022/03/01 03:37:59;;;;;;;7.40;3.72;;;;;;;3.59;45.48;99981.94;5038832;28;20417;-69
2022/03/01 03:40:25;;;;;;;10.38;4.05;;;;;;;3.58;45.70;99977.69;5042660;28;20068;-68
2022/03/01 03:42:50;;;;;;;7.00;3.65;;;;;;;3.51;45.62;99984.84;5024550;28;20789;-68
2022/03/01 03:45:16;;;;;;;8.80;3.78;;;;;;;3.49;45.76;99985.78;5041280;28;20036;-69
2022/03/01 03:47:42;;;;;;;10.23;4.13;;;;;;;3.57;45.49;99992.28;5039488;28;20024;-68
2022/03/01 03:50:09;;;;;;;9.15;4.05;;;;;;;3.58;45.60;99985.41;5044214;28;20025;-68
2022/03/01 03:52:36;;;;;;;7.13;3.67;;;;;;;3.53;45.09;99989.91;5044646;28;20032;-67
2022/03/01 03:55:01;;;;;;;9.45;4.00;;;;;;;3.61;45.46;99995.56;5040976;28;20029;-67
2022/03/01 03:57:27;;;;;;;8.80;3.92;;;;;;;3.26;45.62;99943.91;5025111;28;20028;-70
2022/03/01 03:59:53;;;;;;;7.05;3.50;;;;;;;3.55;45.53;99993.25;5054974;28;20040;-68
2022/03/01 04:02:18;;;;;;;8.88;4.20;;;;;;;3.20;45.35;99929.59;5043834;28;20021;-68
2022/03/01 04:04:44;;;;;;;8.25;3.75;;;;;;;3.66;45.28;99991.88;5042570;28;20036;-68
2022/03/01 04:07:09;;;;;;;8.80;3.95;;;;;;;3.61;45.23;99996.41;5044106;28;20032;-68
2022/03/01 04:09:35;;;;;;;6.78;3.55;;;;;;;3.25;45.29;99935.38;5046994;28;20105;-68
2022/03/01 04:12:00;;;;;;;9.20;4.25;;;;;;;3.53;45.24;99997.63;5043266;28;20035;-68
2022/03/01 04:14:25;;;;;;;7.95;3.60;;;;;;;3.60;45.14;99984.44;5039409;28;20048;-68
2022/03/01 04:16:51;;;;;;;9.50;4.03;;;;;;;3.58;45.09;99988.81;5023650;28;20026;-68
2022/03/01 04:19:17;;;;;;;7.93;3.92;;;;;;;3.64;45.29;99988.53;5042008;28;20187;-68
2022/03/01 04:21:43;;;;;;;7.55;3.90;;;;;;;3.56;45.17;99974.34;5040242;28;20516;-68
2022/03/01 04:24:08;;;;;;;8.10;3.80;;;;;;;3.82;44.82;99991.22;5040197;28;20037;-68
2022/03/01 04:26:34;;;;;;;8.35;4.22;;;;;;;3.88;44.69;99990.09;5039666;28;20031;-68
2022/03/01 04:28:59;;;;;;;6.93;3.70;;;;;;;3.91;44.90;99984.84;5060383;28;20033;-68
2022/03/01 04:31:24;;;;;;;7.68;3.97;;;;;;;3.91;44.59;99974.53;5042150;28;20352;-68
2022/03/01 04:33:50;;;;;;;7.95;3.80;;;;;;;3.99;45.62;99993.84;5036299;28;20020;-68
2022/03/01 04:36:16;;;;;;;9.25;3.58;;;;;;;3.66;45.14;99930.13;5041537;28;20025;-68
2022/03/01 04:38:42;;;;;;;7.03;3.55;;;;;;;3.66;45.07;99931.88;5025593;28;20120;-68
2022/03/01 04:41:07;;;;;;;8.93;3.67;;;;;;;4.07;44.56;99980.66;5026665;28;20057;-68
2022/03/01 04:43:33;;;;;;;8.80;3.90;;;;;;;3.92;44.81;99984.75;5035627;28;20460;-68
2022/03/01 04:45:58;;;;;;;7.22;3.65;;;;;;;4.09;44.62;99991.72;5040893;28;20562;-68
2022/03/01 04:48:24;;;;;;;8.63;3.97;;;;;;;3.65;44.88;99937.91;5041341;28;20086;-68
2022/03/01 04:50:50;;;;;;;8.43;4.07;;;;;;;4.09;44.21;100002.03;5027421;28;20064;-68
2022/03/01 04:53:16;;;;;;;11.00;3.90;;;;;;;4.09;44.07;100001.16;5026513;28;20423;-67
2022/03/01 04:55:42;;;;;;;8.20;3.67;;;;;;;4.04;44.24;100002.22;5046778;28;20471;-68
2022/03/01 04:58:08;;;;;;;7.07;3.38;;;;;;;3.92;44.16;99976.19;5046789;28;20029;-68
2022/03/01 05:00:34;;;;;;;7.75;3.95;;;;;;;4.02;44.07;100004.03;5040407;28;20025;-68
2022/03/01 05:03:00;;;;;;;9.02;3.88;;;;;;;4.09;43.67;100017.47;5046765;28;20087;-68
2022/03/01 05:05:25;;;;;;;7.80;3.63;;;;;;;3.94;43.45;100005.25;5029897;28;20017;-68
2022/03/01 05:07:51;;;;;;;7.43;3.92;;;;;;;3.96;43.63;100006.03;5047045;28;20043;-68
2022/03/01 05:10:17;;;;;;;8.90;3.70;;;;;;;3.61;44.10;99946.69;5044266;28;20058;-68
2022/03/01 05:12:48;;;;;;;8.93;3.88;;;;;;;3.64;43.76;99952.53;5046841;28;20472;-68
2022/03/01 05:15:14;;;;;;;7.25;3.58;;;;;;;4.02;43.99;100016.91;5046120;28;20106;-68
2022/03/01 05:17:40;;;;;;;8.23;3.88;;;;;;;4.01;43.81;100010.06;5027272;28;20024;-68
2022/03/01 05:20:06;;;;;;;6.75;3.47;;;;;;;3.95;43.67;100004.38;5025593;28;20025;-68
2022/03/01 05:22:32;;;;;;;7.55;3.67;;;;;;;4.02;44.00;100023.78;5037658;28;20032;-68
2022/03/01 05:24:57;;;;;;;8.15;4.05;;;;;;;3.98;44.07;100024.81;5030320;28;20646;-68
2022/03/01 05:27:22;;;;;;;7.95;4.10;;;;;;;4.02;44.00;100021.22;5042423;28;20409;-68
2022/03/01 05:29:48;;;;;;;8.05;4.28;;;;;;;3.92;44.20;100018.19;5045374;28;20035;-68
2022/03/01 05:32:13;;;;;;;9.80;4.20;;;;;;;3.96;44.04;100018.91;5040778;28;20045;-67
2022/03/01 05:34:38;;;;;;;8.70;4.35;;;;;;;3.91;44.07;100015.72;5025366;28;20495;-68
2022/03/01 05:37:04;;;;;;;7.88;3.80;;;;;;;3.96;44.31;100017.19;5025740;28;20025;-68
2022/03/01 05:39:29;;;;;;;9.95;4.13;;;;;;;4.06;44.23;100019.34;5041575;28;20025;-68
2022/03/01 05:41:55;;;;;;;9.13;4.00;;;;;;;4.01;44.04;100020.34;5021533;28;20104;-68
2022/03/01 05:44:20;;;;;;;9.05;4.55;;;;;;;3.95;44.48;100022.38;5025765;28;20028;-68
2022/03/01 05:46:46;;;;;;;7.75;4.07;;;;;;;3.90;43.35;99991.69;5042101;28;20079;-68
2022/03/01 05:49:11;;;;;;;8.80;4.60;;;;;;;4.16;44.39;100026.59;5040391;28;20132;-68
2022/03/01 05:51:37;;;;;;;10.45;4.88;;;;;;;4.09;44.76;100020.03;5043607;28;20036;-68
2022/03/01 05:54:03;;;;;;;9.68;4.15;;;;;;;4.20;44.20;100033.25;5029981;28;20095;-68
2022/03/01 05:56:28;;;;;;;7.20;3.97;;;;;;;3.77;44.76;99963.09;5045067;28;20108;-68
2022/03/01 05:58:54;;;;;;;8.70;4.13;;;;;;;3.82;45.86;99970.63;5041693;28;20037;-68
2022/03/01 06:01:19;;;;;;;8.85;4.53;;;;;;;4.21;45.78;100034.09;5047337;28;20120;-68
2022/03/01 06:03:44;;;;;;;8.10;4.10;;;;;;;4.16;45.31;100023.16;5043140;28;20025;-68
2022/03/01 06:06:10;;;;;;;11.25;4.32;;;;;;;4.17;44.87;100023.09;5044589;28;20494;-68
2022/03/01 06:08:35;;;;;;;9.15;4.13;;;;;;;4.08;43.99;100023.50;5044439;28;20025;-68
2022/03/01 06:11:01;;;;;;;8.43;4.03;;;;;;;3.91;44.35;100029.41;5040892;28;20042;-68
2022/03/01 06:13:26;;;;;;;9.93;3.90;;;;;;;3.76;45.34;100027.50;5042599;28;20474;-69
2022/03/01 06:15:51;;;;;;;8.80;4.30;;;;;;;3.52;44.91;100026.81;5042685;28;20032;-68
2022/03/01 06:18:17;;;;;;;10.68;4.20;;;;;;;3.20;44.78;99970.72;5041898;28;20716;-68
2022/03/01 06:20:43;;;;;;;8.90;4.28;;;;;;;3.50;44.73;100005.47;5043647;28;20078;-68
2022/03/01 06:23:09;;;;;;;8.07;4.18;;;;;;;3.43;45.31;100018.59;5036229;28;20102;-68
2022/03/01 06:25:35;;;;;;;7.15;3.80;;;;;;;3.39;44.72;100011.91;5025821;28;20558;-68
2022/03/01 06:28:00;;;;;;;9.02;3.97;;;;;;;3.41;45.27;100029.84;5045979;28;20025;-68
2022/03/01 06:30:25;;;;;;;8.80;3.80;;;;;;;3.32;45.76;100022.50;5040111;28;20128;-68
2022/03/01 06:32:51;;;;;;;7.70;3.80;;;;;;;3.30;46.07;100026.88;5028040;28;20483;-68
2022/03/01 06:35:16;;;;;;;9.30;4.28;;;;;;;3.21;46.56;100026.38;5040703;28;20514;-68
2022/03/01 06:37:42;;;;;;;9.18;4.15;;;;;;;3.34;47.36;100034.41;5036014;28;20029;-69
2022/03/01 06:40:08;;;;;;;9.48;3.83;;;;;;;2.83;46.81;99954.25;5038245;28;20364;-71
2022/03/01 06:42:34;;;;;;;7.90;3.75;;;;;;;3.31;46.82;100026.81;5038058;28;20029;-68
2022/03/01 06:44:59;;;;;;;8.13;3.65;;;;;;;3.35;46.81;100037.81;5024208;28;20036;-68
2022/03/01 06:47:24;;;;;;;8.02;4.13;;;;;;;3.29;46.89;100033.78;5018256;28;20025;-69
2022/03/01 06:49:51;;;;;;;7.20;3.67;;;;;;;3.32;46.45;100030.22;5040421;28;20025;-68
2022/03/01 06:52:17;;;;;;;8.95;4.20;;;;;;;3.18;46.21;100030.81;5036905;28;20044;-68
2022/03/01 06:54:42;;;;;;;10.02;3.90;;;;;;;3.19;46.84;100024.75;5040221;28;20123;-68
2022/03/01 06:57:08;;;;;;;10.48;3.83;;;;;;;2.96;45.71;99975.16;5041201;28;20036;-69
2022/03/01 06:59:34;;;;;;;8.57;4.18;;;;;;;2.80;47.20;99953.56;5035848;28;20177;-68
2022/03/01 07:01:59;;;;;;;9.93;4.25;;;;;;;3.34;46.87;100023.28;5039387;28;20043;-69
2022/03/01 07:04:24;;;;;;;10.00;4.15;;;;;;;3.32;47.84;100023.34;5037744;28;20550;-69
2022/03/01 07:06:50;;;;;;;9.65;4.07;;;;;;;3.36;47.88;100024.91;5023877;28;20467;-69
2022/03/01 07:09:15;;;;;;;7.30;3.95;;;;;;;2.96;46.28;99966.63;5041901;28;20107;-68
2022/03/01 07:11:41;;;;;;;9.20;4.47;;;;;;;3.32;47.03;100027.66;5023365;28;20048;-69
2022/03/01 07:14:06;;;;;;;8.57;3.88;;;;;;;3.25;46.72;100017.63;5037875;28;20029;-69
2022/03/01 07:16:31;;;;;;;10.85;3.80;;;;;;;3.00;46.70;99981.81;5037967;28;20069;-68
2022/03/01 07:18:57;;;;;;;8.75;3.83;;;;;;;3.30;47.75;100029.47;5042351;28;20598;-69
2022/03/01 07:21:22;;;;;;;8.45;4.00;;;;;;;3.15;47.11;99980.34;5040981;28;20051;-68
2022/03/01 07:23:48;;;;;;;8.93;3.83;;;;;;;3.07;46.33;99978.09;5045182;28;20430;-69
2022/03/01 07:26:13;;;;;;;7.85;3.80;;;;;;;3.30;45.65;100032.03;5040387;28;20067;-68
2022/03/01 07:28:38;;;;;;;9.48;4.35;;;;;;;3.25;44.83;100025.34;5035542;28;20361;-69
2022/03/01 07:31:04;;;;;;;9.18;4.05;;;;;;;3.32;45.76;100028.47;5036696;28;20124;-69
2022/03/01 07:33:29;;;;;;;9.45;4.03;;;;;;;3.42;44.59;100032.34;5045923;28;20454;-68
2022/03/01 07:35:57;;;;;;;8.63;2.92;;;;;;;3.37;44.56;100024.00;5038114;28;20040;-68
2022/03/01 07:38:22;;;;;;;7.70;3.67;;;;;;;3.35;45.02;100019.81;5042925;28;20032;-70
2022/03/01 07:40:47;;;;;;;7.30;3.72;;;;;;;3.45;45.59;100029.66;5043354;28;20031;-68
2022/03/01 07:43:13;;;;;;;8.95;3.70;;;;;;;3.21;47.58;99969.84;5038869;28;20098;-68
2022/03/01 07:45:38;;;;;;;6.97;3.55;;;;;;;3.14;48.10;99959.84;5022433;28;20432;-68
2022/03/01 07:48:04;;;;;;;8.88;3.85;;;;;;;3.58;47.88;100035.13;5038013;28;20024;-69
2022/03/01 07:50:30;;;;;;;8.63;4.03;;;;;;;3.25;48.37;99971.38;5025300;28;20128;-68
2022/03/01 07:52:55;;;;;;;8.20;3.35;;;;;;;3.55;47.64;100018.97;5042072;28;20471;-68
2022/03/01 07:55:21;;;;;;;6.82;3.63;;;;;;;3.45;47.10;100011.66;5044742;28;20036;-68
2022/03/01 07:57:47;;;;;;;9.90;4.03;;;;;;;3.47;47.92;100021.88;5042184;28;20109;-68
2022/03/01 08:00:13;;;;;;;7.80;3.88;;;;;;;3.52;48.50;100012.22;5024067;28;20433;-68
2022/03/01 08:02:39;;;;;;;7.68;4.05;;;;;;;3.63;48.60;100022.91;5043936;28;20185;-68
2022/03/01 08:05:05;;;;;;;7.72;3.70;;;;;;;3.25;46.69;99967.97;5040957;28;20040;-68
2022/03/01 08:07:31;;;;;;;9.55;4.32;;;;;;;3.47;46.33;100007.28;5037344;28;20029;-69
2022/03/01 08:09:56;;;;;;;9.40;4.30;;;;;;;3.58;47.01;100009.41;5023452;28;20033;-68
2022/03/01 08:12:22;;;;;;;9.40;4.13;;;;;;;3.65;47.01;100012.50;5040220;28;20036;-68
2022/03/01 08:14:47;;;;;;;9.55;4.07;;;;;;;3.54;47.07;99994.16;5035461;28;20492;-68
2022/03/01 08:17:12;;;;;;;8.23;4.03;;;;;;;3.66;45.59;100004.75;5020556;28;20021;-69
2022/03/01 08:19:38;;;;;;;9.73;4.18;;;;;;;3.69;46.58;99997.78;5056668;28;20039;-68
2022/03/01 08:22:03;;;;;;;8.27;3.90;;;;;;;3.72;46.60;100001.06;5038799;28;20803;-68
2022/03/01 08:24:28;;;;;;;7.57;3.80;;;;;;;3.66;45.91;100007.31;5033026;28;20038;-69
2022/03/01 08:26:54;;;;;;;8.55;3.90;;;;;;;3.64;46.19;99990.28;5034928;28;20033;-69
2022/03/01 08:29:20;;;;;;;8.18;4.20;;;;;;;3.83;46.41;100000.59;5042583;28;20498;-69
2022/03/01 08:31:46;;;;;;;9.23;4.18;;;;;;;3.89;45.06;99999.47;5038512;28;20463;-68
2022/03/01 08:34:12;;;;;;;8.18;3.97;;;;;;;3.55;45.72;99941.81;5042659;28;20065;-69
2022/03/01 08:36:37;;;;;;;9.57;4.47;;;;;;;3.86;45.07;99982.44;5020090;28;20028;-68
2022/03/01 08:39:03;;;;;;;8.70;3.83;;;;;;;3.81;44.86;99990.38;5042175;28;20033;-68
2022/03/01 08:41:28;;;;;;;8.68;4.28;;;;;;;3.92;45.77;99997.59;5044417;28;20029;-69
2022/03/01 08:43:54;;;;;;;8.57;3.97;;;;;;;3.87;47.03;99984.13;5041419;28;20029;-68
2022/03/01 08:46:19;;;;;;;9.10;3.88;;;;;;;4.09;46.38;99989.16;5044005;28;20029;-69
2022/03/01 08:48:45;;;;;;;7.65;3.78;;;;;;;4.14;45.54;99981.19;5039692;28;20037;-68
2022/03/01 08:51:11;;;;;;;11.23;4.07;;;;;;;4.09;45.16;99978.00;5036549;28;20017;-67
2022/03/01 08:53:37;;;;;;;9.00;4.22;;;;;;;4.01;45.87;99986.91;5023741;28;20052;-68
2022/03/01 08:56:03;;;;;;;8.05;3.90;;;;;;;3.98;45.55;99986.19;5021864;28;20021;-69
2022/03/01 08:58:28;;;;;;;11.25;4.22;;;;;;;4.14;45.49;99988.91;5041262;28;20071;-68
2022/03/01 09:00:54;;;;;;;7.85;3.67;;;;;;;4.22;45.01;99982.53;5035543;28;20119;-69
2022/03/01 09:03:19;;;;;;;9.13;3.90;;;;;;;4.19;45.21;99979.25;5000270;28;20017;-68
2022/03/01 09:05:45;;;;;;;6.75;3.65;;;;;;;4.32;45.11;99982.09;5020865;28;20024;-69
2022/03/01 09:08:12;;;;;;;7.32;3.78;;;;;;;4.29;44.67;99966.78;5037895;28;20037;-69
2022/03/01 09:10:40;;;;;;;10.57;4.43;;;;;;;4.37;45.13;99980.97;5021440;28;20025;-69
2022/03/01 09:13:05;;;;;;;9.10;4.30;;;;;;;4.41;43.78;99968.78;5038017;28;20043;-69
2022/03/01 09:15:32;;;;;;;8.45;4.03;;;;;;;4.42;44.12;99979.03;5034704;28;20021;-69
2022/03/01 09:18:05;;;;;;;9.18;4.60;;;;;;;4.45;45.22;99972.06;5041543;28;20041;-69
2022/03/01 09:20:32;;;;;;;7.97;3.78;;;;;;;4.24;45.13;99974.72;5037331;28;20029;-69
2022/03/01 09:22:57;;;;;;;8.00;4.20;;;;;;;4.36;44.73;99976.75;5035103;28;20154;-69
2022/03/01 09:25:23;;;;;;;8.60;4.50;;;;;;;4.41;44.92;99971.38;5021682;28;20452;-69
2022/03/01 09:27:49;;;;;;;11.55;4.60;;;;;;;4.43;45.25;99980.69;5038251;28;20487;-68
2022/03/01 09:30:16;;;;;;;8.35;4.50;;;;;;;4.37;44.87;99965.53;5018135;28;20661;-69
2022/03/01 09:32:42;;;;;;;7.57;3.92;;;;;;;4.53;45.46;99959.66;5040920;28;20028;-69
2022/03/01 09:35:08;;;;;;;7.75;4.15;;;;;;;4.49;46.33;99950.38;5021497;28;20136;-69
2022/03/01 09:37:33;;;;;;;7.53;4.13;;;;;;;4.48;45.21;99965.03;5044180;28;20810;-68
2022/03/01 09:40:00;;;;;;;8.45;4.53;;;;;;;4.53;45.71;99955.34;5045461;28;20029;-68
2022/03/01 09:42:27;;;;;;;9.05;4.15;;;;;;;4.55;46.25;99934.66;5039910;28;20383;-70
2022/03/01 09:44:54;;;;;;;7.90;4.10;;;;;;;4.73;45.09;99951.78;5044468;28;20045;-70
2022/03/01 09:47:19;;;;;;;7.50;4.13;;;;;;;4.45;44.37;99887.06;5042548;28;20117;-70
2022/03/01 09:49:45;;;;;;;8.02;4.15;;;;;;;4.63;45.33;99953.13;5044163;28;20467;-70
2022/03/01 09:52:10;;;;;;;8.38;4.10;;;;;;;4.29;44.66;99899.84;5025124;28;20041;-70
2022/03/01 09:54:35;;;;;;;8.70;4.55;;;;;;;4.64;45.37;99934.22;5028631;28;20383;-70
2022/03/01 09:57:01;;;;;;;6.85;3.75;;;;;;;4.78;43.29;99939.53;5041087;28;20476;-69
2022/03/01 09:59:26;;;;;;;8.02;4.00;;;;;;;4.58;44.35;99942.22;5039599;28;20095;-70
2022/03/01 10:01:54;;;;;;;7.65;3.83;;;;;;;4.73;42.59;99938.91;5034559;28;20041;-70
2022/03/01 10:04:20;;;;;;;7.30;3.90;;;;;;;4.78;44.26;99933.50;5022218;28;20060;-70
2022/03/01 10:06:48;;;;;;;9.10;4.32;;;;;;;4.74;43.84;99935.41;5045910;28;20368;-70
2022/03/01 10:09:17;;;;;;;7.45;4.15;;;;;;;4.47;42.94;99874.94;5041852;28;20112;-69
2022/03/01 10:11:43;;;;;;;9.02;4.10;;;;;;;4.68;42.79;99902.22;5024495;28;20041;-69
2022/03/01 10:14:09;;;;;;;8.15;4.70;;;;;;;4.78;43.61;99921.50;5042030;28;20021;-69
2022/03/01 10:16:40;;;;;;;7.55;4.18;;;;;;;4.87;44.08;99920.19;5040278;28;20466;-71
2022/03/01 10:19:10;;;;;;;10.20;4.15;;;;;;;5.05;41.58;99918.41;5040741;28;20418;-69
2022/03/01 10:21:35;;;;;;;8.43;4.20;;;;;;;5.07;41.47;99915.78;5054630;28;20546;-69
2022/03/01 10:24:00;;;;;;;6.85;3.47;;;;;;;5.13;38.88;99915.44;5041169;28;20047;-69
2022/03/01 10:26:28;;;;;;;7.35;3.67;;;;;;;4.75;38.30;99854.63;5039129;28;20032;-69
2022/03/01 10:28:55;;;;;;;9.55;4.05;;;;;;;4.91;39.18;99856.41;5041521;28;20033;-68
2022/03/01 10:31:24;;;;;;;6.65;3.65;;;;;;;4.94;38.85;99833.06;5056299;28;20024;-69
2022/03/01 10:33:57;;;;;;;6.97;3.50;;;;;;;5.25;38.45;99894.19;5045036;28;20511;-69
2022/03/01 10:36:25;;;;;;;7.53;3.70;;;;;;;5.11;38.65;99887.19;5041869;28;20351;-69
2022/03/01 10:39:07;;;;;;;7.00;3.35;;;;;;;5.39;39.07;99888.34;5043257;28;20033;-69
2022/03/01 10:41:38;;;;;;;8.13;3.65;;;;;;;5.40;39.16;99887.41;5025336;28;20082;-69
2022/03/01 10:44:04;;;;;;;8.18;4.05;;;;;;;5.24;39.59;99860.75;5043133;28;20021;-69
2022/03/01 10:46:42;;;;;;;7.75;3.53;;;;;;;5.35;37.41;99882.50;5012677;28;20033;-69
2022/03/01 10:49:10;;;;;;;7.82;3.38;;;;;;;4.82;38.52;99778.69;5040920;28;20021;-70
2022/03/01 10:51:46;;;;;;;6.35;3.13;;;;;;;5.58;37.67;99868.41;5044013;28;20479;-69
2022/03/01 10:54:23;;;;;;;6.82;3.38;;;;;;;5.63;37.31;99867.31;5043218;28;20040;-69
2022/03/01 10:56:50;;;;;;;6.72;3.30;;;;;;;5.66;37.61;99857.66;5040117;28;20078;-69
2022/03/01 10:59:16;;;;;;;8.80;3.70;;;;;;;5.56;37.89;99844.41;5042731;28;20025;-69
2022/03/01 11:01:42;;;;;;;7.10;3.38;;;;;;;5.60;38.64;99834.75;5038479;28;20460;-68
2022/03/01 11:04:07;;;;;;;7.68;3.42;;;;;;;5.76;39.44;99839.91;5044631;28;20037;-68
2022/03/01 11:06:34;;;;;;;7.93;3.92;;;;;;;5.69;38.46;99833.41;5042403;28;20466;-68
2022/03/01 11:09:00;;;;;;;7.43;3.90;;;;;;;5.62;41.17;99825.16;5041373;28;20020;-69
2022/03/01 11:11:26;;;;;;;6.70;3.67;;;;;;;5.50;38.94;99811.19;5042605;28;20099;-69
2022/03/01 11:13:52;;;;;;;7.25;3.70;;;;;;;5.43;39.45;99817.59;5045222;28;20530;-69
2022/03/01 11:16:40;;;;;;;7.50;3.63;;;;;;;5.62;37.82;99812.25;5037507;28;20495;-68
2022/03/01 11:19:54;;;;;;;10.10;3.88;;;;;;;5.57;36.83;99803.97;5043769;28;20550;-69
2022/03/01 11:22:29;;;;;;;9.65;4.07;;;;;;;5.72;38.22;99792.78;5024195;28;20488;-68
2022/03/01 11:24:56;;;;;;;9.18;4.00;;;;;;;5.78;38.80;99789.03;5050329;28;20033;-68
2022/03/01 11:27:24;;;;;;;8.00;4.28;;;;;;;5.79;39.00;99775.22;5033683;28;20025;-69
2022/03/01 11:29:50;;;;;;;9.13;4.32;;;;;;;5.51;38.55;99721.72;5037326;28;20045;-69
2022/03/01 11:32:21;;;;;;;8.88;3.97;;;;;;;5.67;38.86;99773.31;5040412;28;20033;-69
2022/03/01 11:34:47;;;;;;;8.10;4.00;;;;;;;5.76;39.41;99778.78;5049677;28;20060;-70